sensor_id;sensor_type;location;lat;lon;timestamp;P1;durP1;ratioP1;P2;durP2;ratioP2
21270;SDS011;10795;50.796;3.860;2023-03-01T00:02:12;14.85;;;10.73;;
21270;SDS011;10795;50.796;3.860;2023-03-01T00:04:37;14.27;;;10.48;;
21270;SDS011;10795;50.796;3.860;2023-03-01T00:07:03;14.98;;;10.35;;
21270;SDS011;10795;50.796;3.860;2023-03-01T00:09:29;14.80;;;10.25;;
21270;SDS011;10795;50.796;3.860;2023-03-01T00:11:55;15.40;;;10.57;;
21270;SDS011;10795;50.796;3.860;2023-03-01T00:14:21;13.93;;;9.80;;
21270;SDS011;10795;50.796;3.860;2023-03-01T00:16:46;13.23;;;10.00;;
21270;SDS011;10795;50.796;3.860;2023-03-01T00:19:14;13.80;;;9.70;;
21270;SDS011;10795;50.796;3.860;2023-03-01T00:21:41;12.82;;;10.05;;
21270;SDS011;10795;50.796;3.860;2023-03-01T00:24:08;14.77;;;10.27;;
21270;SDS011;10795;50.796;3.860;2023-03-01T00:26:37;14.23;;;9.77;;
21270;SDS011;10795;50.796;3.860;2023-03-01T00:29:03;10.20;;;7.70;;
21270;SDS011;10795;50.796;3.860;2023-03-01T00:31:30;14.52;;;8.93;;
21270;SDS011;10795;50.796;3.860;2023-03-01T00:34:01;14.80;;;9.35;;
21270;SDS011;10795;50.796;3.860;2023-03-01T00:36:30;13.65;;;9.20;;
21270;SDS011;10795;50.796;3.860;2023-03-01T00:38:58;12.20;;;8.80;;
21270;SDS011;10795;50.796;3.860;2023-03-01T00:41:25;11.85;;;8.95;;
21270;SDS011;10795;50.796;3.860;2023-03-01T00:43:54;9.32;;;7.05;;
21270;SDS011;10795;50.796;3.860;2023-03-01T00:46:21;12.25;;;8.80;;
21270;SDS011;10795;50.796;3.860;2023-03-01T00:48:48;12.23;;;8.55;;
21270;SDS011;10795;50.796;3.860;2023-03-01T00:51:15;13.48;;;6.88;;
21270;SDS011;10795;50.796;3.860;2023-03-01T00:53:43;13.05;;;8.27;;
21270;SDS011;10795;50.796;3.860;2023-03-01T00:56:13;12.52;;;8.73;;
21270;SDS011;10795;50.796;3.860;2023-03-01T00:58:40;9.93;;;7.88;;
21270;SDS011;10795;50.796;3.860;2023-03-01T01:01:12;15.60;;;10.13;;
21270;SDS011;10795;50.796;3.860;2023-03-01T01:03:52;12.40;;;9.05;;
21270;SDS011;10795;50.796;3.860;2023-03-01T01:06:22;9.63;;;7.32;;
21270;SDS011;10795;50.796;3.860;2023-03-01T01:08:50;10.73;;;8.35;;
21270;SDS011;10795;50.796;3.860;2023-03-01T01:11:17;8.25;;;6.30;;
21270;SDS011;10795;50.796;3.860;2023-03-01T01:13:44;13.07;;;8.52;;
21270;SDS011;10795;50.796;3.860;2023-03-01T01:16:11;8.50;;;6.50;;
21270;SDS011;10795;50.796;3.860;2023-03-01T01:18:38;13.00;;;8.18;;
21270;SDS011;10795;50.796;3.860;2023-03-01T01:21:09;7.20;;;6.03;;
21270;SDS011;10795;50.796;3.860;2023-03-01T01:23:39;10.13;;;7.43;;
21270;SDS011;10795;50.796;3.860;2023-03-01T01:26:10;12.43;;;7.25;;
21270;SDS011;10795;50.796;3.860;2023-03-01T01:28:43;8.25;;;6.22;;
21270;SDS011;10795;50.796;3.860;2023-03-01T01:31:09;9.00;;;7.13;;
21270;SDS011;10795;50.796;3.860;2023-03-01T01:33:38;9.68;;;6.40;;
21270;SDS011;10795;50.796;3.860;2023-03-01T01:36:04;10.23;;;6.72;;
21270;SDS011;10795;50.796;3.860;2023-03-01T01:38:35;9.65;;;7.70;;
21270;SDS011;10795;50.796;3.860;2023-03-01T01:41:02;9.43;;;7.40;;
21270;SDS011;10795;50.796;3.860;2023-03-01T01:43:36;10.43;;;7.30;;
21270;SDS011;10795;50.796;3.860;2023-03-01T01:48:56;9.35;;;6.65;;
21270;SDS011;10795;50.796;3.860;2023-03-01T01:51:29;9.52;;;7.50;;
21270;SDS011;10795;50.796;3.860;2023-03-01T01:54:06;11.50;;;6.88;;
21270;SDS011;10795;50.796;3.860;2023-03-01T01:56:36;10.63;;;6.78;;
21270;SDS011;10795;50.796;3.860;2023-03-01T01:59:04;11.43;;;7.65;;
21270;SDS011;10795;50.796;3.860;2023-03-01T02:01:30;11.27;;;7.60;;
21270;SDS011;10795;50.796;3.860;2023-03-01T02:03:56;11.00;;;7.32;;
21270;SDS011;10795;50.796;3.860;2023-03-01T02:06:26;11.27;;;6.75;;
21270;SDS011;10795;50.796;3.860;2023-03-01T02:09:00;9.27;;;6.90;;
21270;SDS011;10795;50.796;3.860;2023-03-01T02:11:31;10.13;;;7.47;;
21270;SDS011;10795;50.796;3.860;2023-03-01T02:14:03;12.38;;;8.05;;
21270;SDS011;10795;50.796;3.860;2023-03-01T02:16:29;9.27;;;6.43;;
21270;SDS011;10795;50.796;3.860;2023-03-01T02:18:56;8.55;;;6.43;;
21270;SDS011;10795;50.796;3.860;2023-03-01T02:24:10;10.60;;;6.53;;
21270;SDS011;10795;50.796;3.860;2023-03-01T02:26:47;10.18;;;7.15;;
21270;SDS011;10795;50.796;3.860;2023-03-01T02:29:18;10.95;;;7.05;;
21270;SDS011;10795;50.796;3.860;2023-03-01T02:31:45;9.38;;;6.40;;
21270;SDS011;10795;50.796;3.860;2023-03-01T02:36:42;12.48;;;8.07;;
21270;SDS011;10795;50.796;3.860;2023-03-01T02:39:20;13.35;;;8.50;;
21270;SDS011;10795;50.796;3.860;2023-03-01T02:41:51;12.07;;;7.65;;
21270;SDS011;10795;50.796;3.860;2023-03-01T02:44:21;12.35;;;8.00;;
21270;SDS011;10795;50.796;3.860;2023-03-01T02:46:50;13.85;;;8.35;;
21270;SDS011;10795;50.796;3.860;2023-03-01T02:49:21;13.23;;;6.82;;
21270;SDS011;10795;50.796;3.860;2023-03-01T02:54:58;13.48;;;8.82;;
21270;SDS011;10795;50.796;3.860;2023-03-01T03:00:05;8.07;;;6.55;;
21270;SDS011;10795;50.796;3.860;2023-03-01T03:02:35;8.65;;;6.13;;
21270;SDS011;10795;50.796;3.860;2023-03-01T03:05:09;10.82;;;7.70;;
21270;SDS011;10795;50.796;3.860;2023-03-01T03:07:39;11.25;;;6.82;;
21270;SDS011;10795;50.796;3.860;2023-03-01T03:10:13;10.32;;;8.07;;
21270;SDS011;10795;50.796;3.860;2023-03-01T03:12:53;11.45;;;7.80;;
21270;SDS011;10795;50.796;3.860;2023-03-01T03:15:24;10.98;;;7.10;;
21270;SDS011;10795;50.796;3.860;2023-03-01T03:17:51;9.77;;;7.45;;
21270;SDS011;10795;50.796;3.860;2023-03-01T03:20:19;14.25;;;8.32;;
21270;SDS011;10795;50.796;3.860;2023-03-01T03:22:47;9.35;;;6.82;;
21270;SDS011;10795;50.796;3.860;2023-03-01T03:25:16;8.98;;;6.43;;
21270;SDS011;10795;50.796;3.860;2023-03-01T03:27:43;7.72;;;6.00;;
21270;SDS011;10795;50.796;3.860;2023-03-01T03:30:11;8.90;;;6.43;;
21270;SDS011;10795;50.796;3.860;2023-03-01T03:32:43;11.93;;;7.10;;
21270;SDS011;10795;50.796;3.860;2023-03-01T03:35:23;10.15;;;6.47;;
21270;SDS011;10795;50.796;3.860;2023-03-01T03:37:50;9.82;;;7.32;;
21270;SDS011;10795;50.796;3.860;2023-03-01T03:42:59;14.50;;;7.65;;
21270;SDS011;10795;50.796;3.860;2023-03-01T03:45:25;10.60;;;7.20;;
21270;SDS011;10795;50.796;3.860;2023-03-01T03:47:51;10.75;;;7.32;;
21270;SDS011;10795;50.796;3.860;2023-03-01T03:50:17;12.13;;;7.68;;
21270;SDS011;10795;50.796;3.860;2023-03-01T03:52:43;11.02;;;7.07;;
21270;SDS011;10795;50.796;3.860;2023-03-01T03:55:10;9.77;;;7.47;;
21270;SDS011;10795;50.796;3.860;2023-03-01T03:57:37;9.65;;;7.00;;
21270;SDS011;10795;50.796;3.860;2023-03-01T04:00:05;10.32;;;7.80;;
21270;SDS011;10795;50.796;3.860;2023-03-01T04:02:39;9.82;;;7.07;;
21270;SDS011;10795;50.796;3.860;2023-03-01T04:05:06;9.45;;;6.80;;
21270;SDS011;10795;50.796;3.860;2023-03-01T04:07:34;8.90;;;6.63;;
21270;SDS011;10795;50.796;3.860;2023-03-01T04:10:01;12.85;;;8.38;;
21270;SDS011;10795;50.796;3.860;2023-03-01T04:12:28;9.43;;;6.50;;
21270;SDS011;10795;50.796;3.860;2023-03-01T04:14:59;9.70;;;6.68;;
21270;SDS011;10795;50.796;3.860;2023-03-01T04:17:40;10.20;;;7.00;;
21270;SDS011;10795;50.796;3.860;2023-03-01T04:20:11;11.48;;;7.78;;
21270;SDS011;10795;50.796;3.860;2023-03-01T04:22:39;11.43;;;7.10;;
21270;SDS011;10795;50.796;3.860;2023-03-01T04:25:08;10.83;;;7.63;;
21270;SDS011;10795;50.796;3.860;2023-03-01T04:27:37;10.00;;;7.10;;
21270;SDS011;10795;50.796;3.860;2023-03-01T04:30:03;13.88;;;6.97;;
21270;SDS011;10795;50.796;3.860;2023-03-01T04:32:29;13.48;;;6.93;;
21270;SDS011;10795;50.796;3.860;2023-03-01T04:34:55;9.50;;;6.63;;
21270;SDS011;10795;50.796;3.860;2023-03-01T04:37:21;10.13;;;7.10;;
21270;SDS011;10795;50.796;3.860;2023-03-01T04:39:54;9.45;;;6.80;;
21270;SDS011;10795;50.796;3.860;2023-03-01T04:42:20;8.23;;;6.57;;
21270;SDS011;10795;50.796;3.860;2023-03-01T04:44:46;11.77;;;8.10;;
21270;SDS011;10795;50.796;3.860;2023-03-01T04:47:12;10.15;;;6.63;;
21270;SDS011;10795;50.796;3.860;2023-03-01T04:49:38;9.75;;;6.90;;
21270;SDS011;10795;50.796;3.860;2023-03-01T04:52:06;13.35;;;7.05;;
21270;SDS011;10795;50.796;3.860;2023-03-01T04:54:33;9.52;;;6.95;;
21270;SDS011;10795;50.796;3.860;2023-03-01T04:57:02;9.18;;;6.68;;
21270;SDS011;10795;50.796;3.860;2023-03-01T04:59:30;13.73;;;7.75;;
21270;SDS011;10795;50.796;3.860;2023-03-01T05:01:56;11.93;;;7.65;;
21270;SDS011;10795;50.796;3.860;2023-03-01T05:04:25;13.50;;;8.63;;
21270;SDS011;10795;50.796;3.860;2023-03-01T05:06:51;8.63;;;6.63;;
21270;SDS011;10795;50.796;3.860;2023-03-01T05:09:18;10.68;;;6.93;;
21270;SDS011;10795;50.796;3.860;2023-03-01T05:11:44;12.68;;;8.55;;
21270;SDS011;10795;50.796;3.860;2023-03-01T05:14:11;10.98;;;7.40;;
21270;SDS011;10795;50.796;3.860;2023-03-01T05:16:37;11.88;;;8.15;;
21270;SDS011;10795;50.796;3.860;2023-03-01T05:19:03;10.73;;;8.00;;
21270;SDS011;10795;50.796;3.860;2023-03-01T05:21:39;9.95;;;7.07;;
21270;SDS011;10795;50.796;3.860;2023-03-01T05:24:28;9.52;;;7.00;;
21270;SDS011;10795;50.796;3.860;2023-03-01T05:26:54;11.95;;;8.45;;
21270;SDS011;10795;50.796;3.860;2023-03-01T05:29:21;12.15;;;8.75;;
21270;SDS011;10795;50.796;3.860;2023-03-01T05:31:52;13.23;;;8.88;;
21270;SDS011;10795;50.796;3.860;2023-03-01T05:34:24;13.13;;;8.88;;
21270;SDS011;10795;50.796;3.860;2023-03-01T05:36:51;13.73;;;8.50;;
21270;SDS011;10795;50.796;3.860;2023-03-01T05:39:23;14.80;;;8.55;;
21270;SDS011;10795;50.796;3.860;2023-03-01T05:41:58;12.13;;;8.35;;
21270;SDS011;10795;50.796;3.860;2023-03-01T05:44:25;12.68;;;9.15;;
21270;SDS011;10795;50.796;3.860;2023-03-01T05:46:52;11.95;;;9.13;;
21270;SDS011;10795;50.796;3.860;2023-03-01T05:49:21;12.88;;;9.15;;
21270;SDS011;10795;50.796;3.860;2023-03-01T05:51:51;15.05;;;9.18;;
21270;SDS011;10795;50.796;3.860;2023-03-01T05:54:18;13.88;;;8.55;;
21270;SDS011;10795;50.796;3.860;2023-03-01T05:56:45;14.45;;;9.25;;
21270;SDS011;10795;50.796;3.860;2023-03-01T05:59:14;14.30;;;9.48;;
21270;SDS011;10795;50.796;3.860;2023-03-01T06:01:41;16.08;;;10.60;;
21270;SDS011;10795;50.796;3.860;2023-03-01T06:04:07;12.80;;;8.77;;
21270;SDS011;10795;50.796;3.860;2023-03-01T06:06:34;15.35;;;9.55;;
21270;SDS011;10795;50.796;3.860;2023-03-01T06:09:06;14.45;;;8.70;;
21270;SDS011;10795;50.796;3.860;2023-03-01T06:11:37;10.23;;;8.07;;
21270;SDS011;10795;50.796;3.860;2023-03-01T06:14:03;10.02;;;7.57;;
21270;SDS011;10795;50.796;3.860;2023-03-01T06:16:31;12.70;;;8.90;;
21270;SDS011;10795;50.796;3.860;2023-03-01T06:18:57;13.23;;;8.25;;
21270;SDS011;10795;50.796;3.860;2023-03-01T06:21:25;13.75;;;8.63;;
21270;SDS011;10795;50.796;3.860;2023-03-01T06:23:51;16.30;;;9.73;;
21270;SDS011;10795;50.796;3.860;2023-03-01T06:26:17;16.77;;;9.85;;
21270;SDS011;10795;50.796;3.860;2023-03-01T06:28:43;15.57;;;9.93;;
21270;SDS011;10795;50.796;3.860;2023-03-01T06:31:11;16.27;;;10.32;;
21270;SDS011;10795;50.796;3.860;2023-03-01T06:33:39;14.70;;;10.23;;
21270;SDS011;10795;50.796;3.860;2023-03-01T06:36:05;20.50;;;10.43;;
21270;SDS011;10795;50.796;3.860;2023-03-01T06:38:39;15.55;;;10.82;;
21270;SDS011;10795;50.796;3.860;2023-03-01T06:41:08;15.67;;;10.60;;
21270;SDS011;10795;50.796;3.860;2023-03-01T06:43:38;14.55;;;9.90;;
21270;SDS011;10795;50.796;3.860;2023-03-01T06:46:07;16.25;;;10.00;;
21270;SDS011;10795;50.796;3.860;2023-03-01T06:48:35;15.52;;;10.32;;
21270;SDS011;10795;50.796;3.860;2023-03-01T06:51:01;15.25;;;9.90;;
21270;SDS011;10795;50.796;3.860;2023-03-01T06:53:27;11.18;;;8.73;;
21270;SDS011;10795;50.796;3.860;2023-03-01T06:55:56;14.80;;;10.38;;
21270;SDS011;10795;50.796;3.860;2023-03-01T06:58:26;15.02;;;10.50;;
21270;SDS011;10795;50.796;3.860;2023-03-01T07:00:51;15.18;;;10.27;;
21270;SDS011;10795;50.796;3.860;2023-03-01T07:03:17;16.85;;;10.32;;
21270;SDS011;10795;50.796;3.860;2023-03-01T07:06:04;17.65;;;10.60;;
21270;SDS011;10795;50.796;3.860;2023-03-01T07:08:47;14.63;;;9.77;;
21270;SDS011;10795;50.796;3.860;2023-03-01T07:11:21;15.40;;;10.50;;
21270;SDS011;10795;50.796;3.860;2023-03-01T07:13:57;15.90;;;10.13;;
21270;SDS011;10795;50.796;3.860;2023-03-01T07:16:25;13.18;;;8.57;;
21270;SDS011;10795;50.796;3.860;2023-03-01T07:18:51;14.65;;;9.65;;
21270;SDS011;10795;50.796;3.860;2023-03-01T07:21:16;12.82;;;7.70;;
21270;SDS011;10795;50.796;3.860;2023-03-01T07:23:42;15.82;;;8.98;;
21270;SDS011;10795;50.796;3.860;2023-03-01T07:26:11;13.43;;;8.50;;
21270;SDS011;10795;50.796;3.860;2023-03-01T07:28:37;14.20;;;8.88;;
21270;SDS011;10795;50.796;3.860;2023-03-01T07:31:05;14.13;;;8.68;;
21270;SDS011;10795;50.796;3.860;2023-03-01T07:33:40;12.60;;;7.85;;
21270;SDS011;10795;50.796;3.860;2023-03-01T07:36:13;12.38;;;7.82;;
21270;SDS011;10795;50.796;3.860;2023-03-01T07:38:38;12.30;;;8.35;;
21270;SDS011;10795;50.796;3.860;2023-03-01T07:41:04;11.82;;;7.95;;
21270;SDS011;10795;50.796;3.860;2023-03-01T07:43:33;12.18;;;7.95;;
21270;SDS011;10795;50.796;3.860;2023-03-01T07:46:02;13.95;;;8.63;;
21270;SDS011;10795;50.796;3.860;2023-03-01T07:48:29;11.27;;;7.80;;
21270;SDS011;10795;50.796;3.860;2023-03-01T07:51:02;14.00;;;8.18;;
21270;SDS011;10795;50.796;3.860;2023-03-01T07:53:29;13.82;;;7.38;;
21270;SDS011;10795;50.796;3.860;2023-03-01T07:56:00;10.70;;;7.60;;
21270;SDS011;10795;50.796;3.860;2023-03-01T07:58:39;10.70;;;6.85;;
21270;SDS011;10795;50.796;3.860;2023-03-01T08:01:07;14.30;;;7.80;;
21270;SDS011;10795;50.796;3.860;2023-03-01T08:03:35;15.32;;;8.70;;
21270;SDS011;10795;50.796;3.860;2023-03-01T08:06:07;12.75;;;7.95;;
21270;SDS011;10795;50.796;3.860;2023-03-01T08:08:34;13.82;;;8.13;;
21270;SDS011;10795;50.796;3.860;2023-03-01T08:11:02;11.77;;;8.73;;
21270;SDS011;10795;50.796;3.860;2023-03-01T08:13:29;12.07;;;7.30;;
21270;SDS011;10795;50.796;3.860;2023-03-01T08:16:06;15.43;;;8.85;;
21270;SDS011;10795;50.796;3.860;2023-03-01T08:18:34;9.73;;;6.63;;
21270;SDS011;10795;50.796;3.860;2023-03-01T08:21:01;15.60;;;7.78;;
21270;SDS011;10795;50.796;3.860;2023-03-01T08:23:28;13.45;;;8.38;;
21270;SDS011;10795;50.796;3.860;2023-03-01T08:25:55;12.88;;;7.78;;
21270;SDS011;10795;50.796;3.860;2023-03-01T08:28:28;13.13;;;7.45;;
21270;SDS011;10795;50.796;3.860;2023-03-01T08:30:54;9.55;;;7.63;;
21270;SDS011;10795;50.796;3.860;2023-03-01T08:33:20;10.85;;;6.60;;
21270;SDS011;10795;50.796;3.860;2023-03-01T08:35:45;13.82;;;8.60;;
21270;SDS011;10795;50.796;3.860;2023-03-01T08:38:11;12.05;;;8.18;;
21270;SDS011;10795;50.796;3.860;2023-03-01T08:40:37;9.77;;;7.22;;
21270;SDS011;10795;50.796;3.860;2023-03-01T08:43:03;13.05;;;7.82;;
21270;SDS011;10795;50.796;3.860;2023-03-01T08:45:29;10.75;;;8.65;;
21270;SDS011;10795;50.796;3.860;2023-03-01T08:47:56;11.95;;;7.88;;
21270;SDS011;10795;50.796;3.860;2023-03-01T08:50:24;11.32;;;7.38;;
21270;SDS011;10795;50.796;3.860;2023-03-01T08:52:50;9.73;;;6.93;;
21270;SDS011;10795;50.796;3.860;2023-03-01T08:55:16;14.07;;;8.52;;
21270;SDS011;10795;50.796;3.860;2023-03-01T08:57:42;11.65;;;8.40;;
21270;SDS011;10795;50.796;3.860;2023-03-01T09:00:09;10.70;;;8.27;;
21270;SDS011;10795;50.796;3.860;2023-03-01T09:02:40;13.02;;;7.90;;
21270;SDS011;10795;50.796;3.860;2023-03-01T09:05:05;11.73;;;8.75;;
21270;SDS011;10795;50.796;3.860;2023-03-01T09:07:32;11.88;;;8.98;;
21270;SDS011;10795;50.796;3.860;2023-03-01T09:09:58;12.45;;;8.88;;
21270;SDS011;10795;50.796;3.860;2023-03-01T09:12:24;13.30;;;8.55;;
21270;SDS011;10795;50.796;3.860;2023-03-01T09:14:50;14.32;;;8.65;;
21270;SDS011;10795;50.796;3.860;2023-03-01T09:17:16;12.23;;;8.15;;
21270;SDS011;10795;50.796;3.860;2023-03-01T09:19:42;11.38;;;9.02;;
21270;SDS011;10795;50.796;3.860;2023-03-01T09:22:07;11.40;;;8.32;;
21270;SDS011;10795;50.796;3.860;2023-03-01T09:24:33;11.18;;;7.75;;
21270;SDS011;10795;50.796;3.860;2023-03-01T09:26:59;12.30;;;8.32;;
21270;SDS011;10795;50.796;3.860;2023-03-01T09:29:28;13.55;;;8.55;;
21270;SDS011;10795;50.796;3.860;2023-03-01T09:31:54;13.10;;;8.38;;
21270;SDS011;10795;50.796;3.860;2023-03-01T09:34:20;10.45;;;7.90;;
21270;SDS011;10795;50.796;3.860;2023-03-01T09:36:48;7.85;;;5.32;;
21270;SDS011;10795;50.796;3.860;2023-03-01T09:39:15;8.88;;;6.88;;
21270;SDS011;10795;50.796;3.860;2023-03-01T09:47:03;14.02;;;8.23;;
21270;SDS011;10795;50.796;3.860;2023-03-01T09:49:31;10.63;;;8.73;;
21270;SDS011;10795;50.796;3.860;2023-03-01T09:55:15;13.80;;;8.23;;
21270;SDS011;10795;50.796;3.860;2023-03-01T10:00:47;9.23;;;6.43;;
21270;SDS011;10795;50.796;3.860;2023-03-01T10:03:26;12.40;;;8.65;;
21270;SDS011;10795;50.796;3.860;2023-03-01T10:06:14;11.23;;;8.25;;
21270;SDS011;10795;50.796;3.860;2023-03-01T10:11:22;9.60;;;6.90;;
21270;SDS011;10795;50.796;3.860;2023-03-01T10:16:43;12.40;;;9.10;;
21270;SDS011;10795;50.796;3.860;2023-03-01T10:19:43;7.75;;;4.70;;
21270;SDS011;10795;50.796;3.860;2023-03-01T10:27:46;13.35;;;8.48;;
21270;SDS011;10795;50.796;3.860;2023-03-01T10:30:35;12.30;;;6.97;;
21270;SDS011;10795;50.796;3.860;2023-03-01T10:33:40;9.82;;;5.88;;
21270;SDS011;10795;50.796;3.860;2023-03-01T10:36:04;12.68;;;6.97;;
21270;SDS011;10795;50.796;3.860;2023-03-01T10:38:47;8.38;;;5.38;;
21270;SDS011;10795;50.796;3.860;2023-03-01T10:41:21;10.98;;;7.78;;
21270;SDS011;10795;50.796;3.860;2023-03-01T10:44:00;12.70;;;6.85;;
21270;SDS011;10795;50.796;3.860;2023-03-01T10:46:34;12.18;;;8.63;;
21270;SDS011;10795;50.796;3.860;2023-03-01T10:51:30;11.25;;;8.15;;
21270;SDS011;10795;50.796;3.860;2023-03-01T10:53:57;11.73;;;7.70;;
21270;SDS011;10795;50.796;3.860;2023-03-01T10:56:25;12.13;;;8.48;;
21270;SDS011;10795;50.796;3.860;2023-03-01T10:58:58;11.98;;;7.00;;
21270;SDS011;10795;50.796;3.860;2023-03-01T11:01:29;11.35;;;7.93;;
21270;SDS011;10795;50.796;3.860;2023-03-01T11:04:12;11.35;;;8.20;;
21270;SDS011;10795;50.796;3.860;2023-03-01T11:06:41;13.32;;;8.10;;
21270;SDS011;10795;50.796;3.860;2023-03-01T11:09:15;10.05;;;7.60;;
21270;SDS011;10795;50.796;3.860;2023-03-01T11:11:43;9.27;;;6.68;;
21270;SDS011;10795;50.796;3.860;2023-03-01T11:14:17;9.82;;;6.88;;
21270;SDS011;10795;50.796;3.860;2023-03-01T11:16:57;11.32;;;7.28;;
21270;SDS011;10795;50.796;3.860;2023-03-01T11:19:28;12.60;;;7.55;;
21270;SDS011;10795;50.796;3.860;2023-03-01T11:22:13;8.27;;;6.43;;
21270;SDS011;10795;50.796;3.860;2023-03-01T11:24:46;9.57;;;6.32;;
21270;SDS011;10795;50.796;3.860;2023-03-01T11:27:26;11.57;;;7.07;;
21270;SDS011;10795;50.796;3.860;2023-03-01T11:32:25;9.95;;;6.35;;
21270;SDS011;10795;50.796;3.860;2023-03-01T11:35:14;6.75;;;4.30;;
21270;SDS011;10795;50.796;3.860;2023-03-01T11:37:54;11.40;;;8.15;;
21270;SDS011;10795;50.796;3.860;2023-03-01T11:51:45;11.77;;;6.63;;
21270;SDS011;10795;50.796;3.860;2023-03-01T12:08:17;12.00;;;7.95;;
21270;SDS011;10795;50.796;3.860;2023-03-01T12:11:10;9.73;;;6.05;;
21270;SDS011;10795;50.796;3.860;2023-03-01T12:13:48;8.63;;;6.32;;
21270;SDS011;10795;50.796;3.860;2023-03-01T12:22:21;11.45;;;7.78;;
21270;SDS011;10795;50.796;3.860;2023-03-01T12:37:03;10.65;;;8.25;;
21270;SDS011;10795;50.796;3.860;2023-03-01T12:39:58;14.02;;;8.82;;
21270;SDS011;10795;50.796;3.860;2023-03-01T12:51:46;10.13;;;7.15;;
21270;SDS011;10795;50.796;3.860;2023-03-01T12:54:35;11.52;;;7.30;;
21270;SDS011;10795;50.796;3.860;2023-03-01T12:57:17;9.95;;;6.18;;
21270;SDS011;10795;50.796;3.860;2023-03-01T13:03:03;10.80;;;6.90;;
21270;SDS011;10795;50.796;3.860;2023-03-01T13:08:56;9.63;;;7.00;;
21270;SDS011;10795;50.796;3.860;2023-03-01T13:11:41;10.65;;;7.60;;
21270;SDS011;10795;50.796;3.860;2023-03-01T13:16:50;11.30;;;7.38;;
21270;SDS011;10795;50.796;3.860;2023-03-01T13:19:29;8.77;;;7.22;;
21270;SDS011;10795;50.796;3.860;2023-03-01T13:21:57;12.77;;;7.25;;
21270;SDS011;10795;50.796;3.860;2023-03-01T13:24:43;10.88;;;7.60;;
21270;SDS011;10795;50.796;3.860;2023-03-01T13:27:19;9.45;;;7.03;;
21270;SDS011;10795;50.796;3.860;2023-03-01T13:30:00;10.88;;;7.47;;
21270;SDS011;10795;50.796;3.860;2023-03-01T13:32:35;8.75;;;6.70;;
21270;SDS011;10795;50.796;3.860;2023-03-01T13:37:46;8.80;;;7.03;;
21270;SDS011;10795;50.796;3.860;2023-03-01T13:41:05;7.07;;;5.88;;
21270;SDS011;10795;50.796;3.860;2023-03-01T13:46:38;10.70;;;7.65;;
21270;SDS011;10795;50.796;3.860;2023-03-01T13:49:05;7.72;;;6.38;;
21270;SDS011;10795;50.796;3.860;2023-03-01T13:51:39;8.25;;;7.35;;
21270;SDS011;10795;50.796;3.860;2023-03-01T13:54:09;11.77;;;8.10;;
21270;SDS011;10795;50.796;3.860;2023-03-01T13:56:37;9.95;;;6.32;;
21270;SDS011;10795;50.796;3.860;2023-03-01T13:59:12;10.20;;;6.78;;
21270;SDS011;10795;50.796;3.860;2023-03-01T14:01:51;9.80;;;7.28;;
21270;SDS011;10795;50.796;3.860;2023-03-01T14:06:52;9.87;;;7.10;;
21270;SDS011;10795;50.796;3.860;2023-03-01T14:09:35;10.60;;;7.03;;
21270;SDS011;10795;50.796;3.860;2023-03-01T14:15:04;8.35;;;6.53;;
21270;SDS011;10795;50.796;3.860;2023-03-01T14:20:54;9.80;;;7.93;;
21270;SDS011;10795;50.796;3.860;2023-03-01T14:23:21;10.75;;;7.43;;
21270;SDS011;10795;50.796;3.860;2023-03-01T14:25:52;10.82;;;7.05;;
21270;SDS011;10795;50.796;3.860;2023-03-01T14:28:24;9.30;;;7.18;;
21270;SDS011;10795;50.796;3.860;2023-03-01T14:30:57;10.07;;;6.32;;
21270;SDS011;10795;50.796;3.860;2023-03-01T14:35:58;9.70;;;6.57;;
21270;SDS011;10795;50.796;3.860;2023-03-01T14:41:02;12.40;;;7.32;;
21270;SDS011;10795;50.796;3.860;2023-03-01T14:43:34;9.70;;;7.50;;
21270;SDS011;10795;50.796;3.860;2023-03-01T14:46:02;8.02;;;5.47;;
21270;SDS011;10795;50.796;3.860;2023-03-01T14:48:28;9.07;;;5.70;;
21270;SDS011;10795;50.796;3.860;2023-03-01T14:50:54;8.60;;;6.22;;
21270;SDS011;10795;50.796;3.860;2023-03-01T14:53:25;7.70;;;4.93;;
21270;SDS011;10795;50.796;3.860;2023-03-01T14:56:00;7.47;;;5.15;;
21270;SDS011;10795;50.796;3.860;2023-03-01T14:58:31;7.00;;;5.07;;
21270;SDS011;10795;50.796;3.860;2023-03-01T15:00:59;10.10;;;6.15;;
21270;SDS011;10795;50.796;3.860;2023-03-01T15:06:03;7.93;;;5.95;;
21270;SDS011;10795;50.796;3.860;2023-03-01T15:08:31;7.63;;;5.15;;
21270;SDS011;10795;50.796;3.860;2023-03-01T15:13:38;9.05;;;6.82;;
21270;SDS011;10795;50.796;3.860;2023-03-01T15:16:08;9.23;;;6.47;;
21270;SDS011;10795;50.796;3.860;2023-03-01T15:18:43;9.25;;;6.78;;
21270;SDS011;10795;50.796;3.860;2023-03-01T15:21:19;8.27;;;6.07;;
21270;SDS011;10795;50.796;3.860;2023-03-01T15:23:50;10.02;;;6.70;;
21270;SDS011;10795;50.796;3.860;2023-03-01T15:26:32;10.82;;;5.18;;
21270;SDS011;10795;50.796;3.860;2023-03-01T15:29:04;9.40;;;6.47;;
21270;SDS011;10795;50.796;3.860;2023-03-01T15:31:41;11.65;;;7.60;;
21270;SDS011;10795;50.796;3.860;2023-03-01T15:34:21;12.18;;;6.80;;
21270;SDS011;10795;50.796;3.860;2023-03-01T15:36:49;10.30;;;6.88;;
21270;SDS011;10795;50.796;3.860;2023-03-01T15:44:37;9.07;;;6.47;;
21270;SDS011;10795;50.796;3.860;2023-03-01T15:47:07;8.23;;;6.15;;
21270;SDS011;10795;50.796;3.860;2023-03-01T15:49:47;8.45;;;6.05;;
21270;SDS011;10795;50.796;3.860;2023-03-01T15:52:29;9.00;;;6.78;;
21270;SDS011;10795;50.796;3.860;2023-03-01T15:55:04;11.30;;;7.28;;
21270;SDS011;10795;50.796;3.860;2023-03-01T15:57:32;9.75;;;6.63;;
21270;SDS011;10795;50.796;3.860;2023-03-01T15:59:58;9.13;;;6.20;;
21270;SDS011;10795;50.796;3.860;2023-03-01T16:02:23;9.23;;;6.47;;
21270;SDS011;10795;50.796;3.860;2023-03-01T16:04:50;8.07;;;6.50;;
21270;SDS011;10795;50.796;3.860;2023-03-01T16:07:16;11.25;;;7.22;;
21270;SDS011;10795;50.796;3.860;2023-03-01T16:09:42;9.40;;;6.72;;
21270;SDS011;10795;50.796;3.860;2023-03-01T16:12:14;9.07;;;5.95;;
21270;SDS011;10795;50.796;3.860;2023-03-01T16:14:41;10.45;;;6.90;;
21270;SDS011;10795;50.796;3.860;2023-03-01T16:17:07;10.38;;;7.03;;
21270;SDS011;10795;50.796;3.860;2023-03-01T16:19:35;9.60;;;6.13;;
21270;SDS011;10795;50.796;3.860;2023-03-01T16:22:02;10.65;;;6.50;;
21270;SDS011;10795;50.796;3.860;2023-03-01T16:24:28;11.15;;;6.95;;
21270;SDS011;10795;50.796;3.860;2023-03-01T16:26:55;10.32;;;7.18;;
21270;SDS011;10795;50.796;3.860;2023-03-01T16:29:21;12.00;;;6.75;;
21270;SDS011;10795;50.796;3.860;2023-03-01T16:31:46;8.40;;;5.72;;
21270;SDS011;10795;50.796;3.860;2023-03-01T16:34:12;7.82;;;5.93;;
21270;SDS011;10795;50.796;3.860;2023-03-01T16:36:38;9.80;;;7.45;;
21270;SDS011;10795;50.796;3.860;2023-03-01T16:39:04;9.23;;;6.72;;
21270;SDS011;10795;50.796;3.860;2023-03-01T16:41:31;10.02;;;6.43;;
21270;SDS011;10795;50.796;3.860;2023-03-01T16:43:57;9.30;;;6.30;;
21270;SDS011;10795;50.796;3.860;2023-03-01T16:46:24;9.15;;;6.65;;
21270;SDS011;10795;50.796;3.860;2023-03-01T16:48:53;10.32;;;7.15;;
21270;SDS011;10795;50.796;3.860;2023-03-01T16:51:20;11.15;;;6.97;;
21270;SDS011;10795;50.796;3.860;2023-03-01T16:53:47;9.88;;;7.65;;
21270;SDS011;10795;50.796;3.860;2023-03-01T16:56:14;10.18;;;6.55;;
21270;SDS011;10795;50.796;3.860;2023-03-01T16:58:41;9.68;;;6.90;;
21270;SDS011;10795;50.796;3.860;2023-03-01T17:01:09;10.70;;;8.40;;
21270;SDS011;10795;50.796;3.860;2023-03-01T17:03:37;11.18;;;6.43;;
21270;SDS011;10795;50.796;3.860;2023-03-01T17:06:05;11.60;;;7.32;;
21270;SDS011;10795;50.796;3.860;2023-03-01T17:08:32;9.90;;;6.20;;
21270;SDS011;10795;50.796;3.860;2023-03-01T17:11:02;13.60;;;7.85;;
21270;SDS011;10795;50.796;3.860;2023-03-01T17:13:36;11.10;;;7.93;;